Huvudsida
METAR-TAF:

METAR-TAF

Flygplatser :

Shahid Ashrafi Esfahani Airport

Kermanshah, Iran

latitud: 34-16N, longitud: 047-07E, höjd: 1320 m

Aktuellt väderrapport

Denna rapport gjordes för 38 minuter sedan, klockan 04:30 UTC
Vind 2 kt varierande vindriktning
Temperatur -2°C
Fuktighet 80%
Tryck 1019 hPa
Sikt: 6000 m
Få moln på en höjd av 4500 ft, Högtornande cumulus.
dimma i närheten

METAR: OICC 200430Z VRB02KT 6000 VCFG FEW045TCU M02/M05 Q1019 A3010

Tid: 08:38 (05:08 UTC)


TAF: saknas

Aktuella väderrapporter och prognoser från 4000 flygplatser (METAR- och TAF-rapporter).

De tillgängliga stationerna syns som gula och röda prickar på kartan.

För musen över prickarna för att se namnen på stationerna.

Klicka sedan för att få väderrapporter och prognoser.

För att ändra kartan: Klicka på de gröna knapparna med ett svart kors på för att zooma in; den gröna knappen med ett streck på för att zooma ut; eller på de gröna pilarna för angränsande kartor.


METAR-TAF: